Time;durP1;ratioP1;P1;durP2;ratioP2;P2;SDS_P1;SDS_P2;PMS_P1;PMS_P2;Temp;Humidity;BMP_temperature;BMP_pressure;BME280_temperature;BME280_humidity;BME280_pressure;Samples;Min_cycle;Max_cycle;Signal;HPM_P1;HPM_P2
2022/03/02 00:02:06;;;;;;;11.75;9.65;;;7.80;99.90;;;;;;5142600;28;20030;-74
2022/03/02 00:04:32;;;;;;;11.60;9.52;;;7.70;99.90;;;;;;5143813;28;20031;-75
2022/03/02 00:06:58;;;;;;;12.38;9.60;;;7.80;99.90;;;;;;5129672;28;20015;-75
2022/03/02 00:09:24;;;;;;;14.20;9.70;;;7.70;99.90;;;;;;5121974;28;20042;-75
2022/03/02 00:11:50;;;;;;;12.00;9.90;;;7.70;99.90;;;;;;5104959;28;20072;-73
2022/03/02 00:14:15;;;;;;;13.57;10.38;;;7.70;99.90;;;;;;5088245;28;20210;-75
2022/03/02 00:16:41;;;;;;;13.35;9.88;;;7.70;99.90;;;;;;5123243;28;20061;-74
2022/03/02 00:19:08;;;;;;;12.10;10.18;;;7.70;99.90;;;;;;5122818;28;20059;-74
2022/03/02 00:21:35;;;;;;;15.48;10.18;;;7.80;99.90;;;;;;5122001;28;20095;-74
2022/03/02 00:24:03;;;;;;;12.18;9.73;;;7.80;99.90;;;;;;5122451;28;20035;-75
2022/03/02 00:26:30;;;;;;;13.73;10.13;;;7.80;99.90;;;;;;5126861;28;20018;-74
2022/03/02 00:28:56;;;;;;;11.55;9.82;;;7.80;99.90;;;;;;5126822;28;20030;-74
2022/03/02 00:31:22;;;;;;;14.25;10.80;;;7.80;99.90;;;;;;5108787;28;20023;-75
2022/03/02 00:33:47;;;;;;;12.68;10.48;;;7.80;99.90;;;;;;5108562;28;20091;-74
2022/03/02 00:36:13;;;;;;;13.25;10.55;;;7.80;99.90;;;;;;5126742;28;20038;-75
2022/03/02 00:38:39;;;;;;;13.52;10.48;;;7.80;99.90;;;;;;5125499;28;20233;-74
2022/03/02 00:41:05;;;;;;;14.63;11.55;;;7.80;99.90;;;;;;5125444;28;20039;-73
2022/03/02 00:43:30;;;;;;;12.98;10.38;;;7.80;99.90;;;;;;5125109;27;20100;-73
2022/03/02 00:45:56;;;;;;;15.48;10.95;;;7.80;99.90;;;;;;5125470;28;20024;-75
2022/03/02 00:48:22;;;;;;;13.20;10.32;;;7.80;99.90;;;;;;5108139;28;20022;-75
2022/03/02 00:50:48;;;;;;;14.32;11.00;;;7.80;99.90;;;;;;5125537;28;20083;-74
2022/03/02 00:53:14;;;;;;;13.88;11.38;;;7.80;99.90;;;;;;5125220;28;20047;-76
2022/03/02 00:55:40;;;;;;;13.80;10.88;;;7.80;99.90;;;;;;5125535;28;20094;-75
2022/03/02 00:58:06;;;;;;;16.52;11.30;;;7.80;99.90;;;;;;5126041;28;20176;-74
2022/03/02 01:00:32;;;;;;;14.23;11.32;;;7.80;99.90;;;;;;5124929;28;20367;-74
2022/03/02 01:02:58;;;;;;;17.13;12.23;;;7.80;99.90;;;;;;5125117;28;20031;-75
2022/03/02 01:05:24;;;;;;;14.73;11.70;;;7.80;99.90;;;;;;5126299;28;20023;-75
2022/03/02 01:07:50;;;;;;;15.98;11.82;;;7.80;99.90;;;;;;5124995;28;20018;-74
2022/03/02 01:10:16;;;;;;;15.52;12.18;;;7.80;99.90;;;;;;5107973;28;20035;-73
2022/03/02 01:12:43;;;;;;;15.60;12.00;;;7.90;99.90;;;;;;5124938;28;20059;-75
2022/03/02 01:15:10;;;;;;;15.57;11.40;;;7.90;99.90;;;;;;5126023;28;20027;-74
2022/03/02 01:17:36;;;;;;;16.20;11.98;;;7.90;99.90;;;;;;5126228;28;20019;-75
2022/03/02 01:20:05;;;;;;;16.02;11.82;;;7.80;99.90;;;;;;5124818;28;20027;-74
2022/03/02 01:22:31;;;;;;;14.80;11.80;;;7.90;99.90;;;;;;5107224;28;20349;-75
2022/03/02 01:24:56;;;;;;;15.50;11.48;;;7.90;99.90;;;;;;5124365;28;20027;-74
2022/03/02 01:27:23;;;;;;;15.30;12.02;;;7.90;99.90;;;;;;5124382;28;20019;-74
2022/03/02 01:29:50;;;;;;;17.85;12.88;;;7.90;99.90;;;;;;5124566;28;20031;-74
2022/03/02 01:32:17;;;;;;;16.33;12.38;;;7.90;99.90;;;;;;5124591;28;20019;-75
2022/03/02 01:34:43;;;;;;;16.20;11.15;;;7.90;99.90;;;;;;5124244;28;20051;-74
2022/03/02 01:37:09;;;;;;;13.88;11.52;;;8.00;99.90;;;;;;5107279;28;20244;-74
2022/03/02 01:39:34;;;;;;;15.27;11.70;;;8.00;99.90;;;;;;5107514;28;20031;-75
2022/03/02 01:42:00;;;;;;;15.93;12.23;;;7.90;99.90;;;;;;5107151;28;20034;-75
2022/03/02 01:44:26;;;;;;;14.73;12.05;;;7.90;99.90;;;;;;5122634;28;20015;-74
2022/03/02 01:46:52;;;;;;;16.15;12.05;;;7.90;99.90;;;;;;5145553;27;20015;-75
2022/03/02 01:49:18;;;;;;;15.43;12.23;;;7.90;99.90;;;;;;5144732;27;20053;-74
2022/03/02 01:51:44;;;;;;;15.63;11.93;;;7.90;99.90;;;;;;5145711;27;20255;-74
2022/03/02 01:54:09;;;;;;;16.00;11.82;;;7.90;99.90;;;;;;5144680;27;20042;-75
2022/03/02 01:56:35;;;;;;;17.25;11.95;;;7.90;99.90;;;;;;5145581;27;20295;-76
2022/03/02 01:59:02;;;;;;;15.77;11.35;;;7.90;99.90;;;;;;5145360;27;20026;-74
2022/03/02 02:01:27;;;;;;;13.68;11.55;;;7.90;99.90;;;;;;5127357;27;20022;-74
2022/03/02 02:03:53;;;;;;;16.13;12.05;;;7.90;99.90;;;;;;5145855;27;20330;-75
2022/03/02 02:06:19;;;;;;;15.77;12.02;;;8.00;99.90;;;;;;5138318;27;20019;-75
2022/03/02 02:08:45;;;;;;;15.43;12.13;;;8.00;99.90;;;;;;5124091;28;20026;-75
2022/03/02 02:11:12;;;;;;;16.30;12.15;;;8.00;99.90;;;;;;5123727;28;20020;-75
2022/03/02 02:13:39;;;;;;;15.77;11.98;;;8.00;99.90;;;;;;5106812;28;20099;-74
2022/03/02 02:16:06;;;;;;;16.67;12.32;;;8.00;99.90;;;;;;5106750;28;20032;-76
2022/03/02 02:18:33;;;;;;;15.15;12.25;;;8.00;99.90;;;;;;5123914;28;20027;-74
2022/03/02 02:21:08;;;;;;;16.27;12.32;;;8.00;99.90;;;;;;5106381;28;20353;-74
2022/03/02 02:23:35;;;;;;;19.52;13.05;;;8.00;99.90;;;;;;5123616;28;20028;-75
2022/03/02 02:26:00;;;;;;;15.38;12.25;;;8.00;99.90;;;;;;5123299;28;20099;-76
2022/03/02 02:28:28;;;;;;;18.13;13.15;;;8.00;99.90;;;;;;5123449;28;20023;-75
2022/03/02 02:30:55;;;;;;;15.30;12.15;;;8.00;99.90;;;;;;5106432;28;20023;-74
2022/03/02 02:33:22;;;;;;;16.90;13.23;;;8.00;99.90;;;;;;5123226;28;20051;-75
2022/03/02 02:35:47;;;;;;;16.35;12.68;;;8.00;99.90;;;;;;5124578;28;20027;-75
2022/03/02 02:38:13;;;;;;;16.80;12.45;;;8.00;99.90;;;;;;5123185;28;20098;-76
2022/03/02 02:40:39;;;;;;;15.98;12.80;;;8.00;99.90;;;;;;5106124;28;20019;-74
2022/03/02 02:43:06;;;;;;;17.15;12.68;;;8.00;99.90;;;;;;5122774;28;20297;-73
2022/03/02 02:45:32;;;;;;;18.30;13.73;;;8.00;99.90;;;;;;5121677;28;20027;-75
2022/03/02 02:47:58;;;;;;;17.00;13.20;;;8.00;99.90;;;;;;5122584;27;20212;-75
2022/03/02 02:50:32;;;;;;;16.92;13.05;;;8.10;99.90;;;;;;5122842;28;20015;-75
2022/03/02 02:53:00;;;;;;;17.45;13.88;;;8.10;99.90;;;;;;5106358;28;20379;-74
2022/03/02 02:55:27;;;;;;;17.73;13.20;;;8.10;99.90;;;;;;5106372;28;20241;-76
2022/03/02 02:57:54;;;;;;;18.45;14.00;;;8.10;99.90;;;;;;5122695;28;20053;-74
2022/03/02 03:00:22;;;;;;;17.58;12.98;;;8.00;99.90;;;;;;5122761;28;20076;-75
2022/03/02 03:02:50;;;;;;;17.90;13.60;;;8.10;99.90;;;;;;5105622;28;20222;-75
2022/03/02 03:05:20;;;;;;;17.80;13.77;;;8.10;99.90;;;;;;5122782;28;20294;-74
2022/03/02 03:07:47;;;;;;;17.02;13.35;;;8.10;99.90;;;;;;5122874;28;20019;-75
2022/03/02 03:10:14;;;;;;;20.00;13.68;;;8.00;99.90;;;;;;5123662;27;20019;-75
2022/03/02 03:12:42;;;;;;;19.60;13.63;;;8.10;99.90;;;;;;5105805;28;20211;-75
2022/03/02 03:15:09;;;;;;;17.73;14.30;;;8.10;99.90;;;;;;5123801;28;20035;-75
2022/03/02 03:17:35;;;;;;;19.27;14.50;;;8.10;99.90;;;;;;5123956;28;20055;-75
2022/03/02 03:20:02;;;;;;;19.48;13.70;;;8.10;99.90;;;;;;5123811;28;20023;-74
2022/03/02 03:22:28;;;;;;;17.33;13.77;;;8.20;99.90;;;;;;5122230;28;20091;-74
2022/03/02 03:24:54;;;;;;;17.73;13.52;;;8.10;99.90;;;;;;5123605;28;20202;-73
2022/03/02 03:27:19;;;;;;;17.95;13.93;;;8.10;99.90;;;;;;5123388;28;20050;-74
2022/03/02 03:29:45;;;;;;;18.63;14.50;;;8.10;99.90;;;;;;5122459;28;20065;-74
2022/03/02 03:32:11;;;;;;;20.17;14.48;;;8.10;99.90;;;;;;5121988;28;20020;-74
2022/03/02 03:34:37;;;;;;;19.27;14.93;;;8.20;99.90;;;;;;5122473;28;20019;-74
2022/03/02 03:37:02;;;;;;;19.40;14.20;;;8.10;99.90;;;;;;5122190;28;20020;-75
2022/03/02 03:39:28;;;;;;;20.85;15.43;;;8.10;99.90;;;;;;5122352;28;20047;-73
2022/03/02 03:41:55;;;;;;;19.42;14.45;;;8.10;99.90;;;;;;5122941;28;20024;-73
2022/03/02 03:44:22;;;;;;;23.42;15.60;;;8.20;99.90;;;;;;5123552;28;20027;-74
2022/03/02 03:46:48;;;;;;;20.65;15.40;;;8.20;99.90;;;;;;5141337;28;20116;-73
2022/03/02 03:49:13;;;;;;;20.50;15.05;;;8.10;99.90;;;;;;5144162;28;20290;-73
2022/03/02 03:51:39;;;;;;;20.23;15.23;;;8.20;99.90;;;;;;5143402;28;20049;-74
2022/03/02 03:54:06;;;;;;;28.70;17.38;;;8.20;99.90;;;;;;5143942;27;20034;-74
2022/03/02 03:56:32;;;;;;;20.17;15.48;;;8.20;99.90;;;;;;5143651;27;20076;-74
2022/03/02 03:58:59;;;;;;;18.52;14.45;;;8.30;99.90;;;;;;5144847;27;20015;-73
2022/03/02 04:01:25;;;;;;;18.05;14.05;;;8.20;99.90;;;;;;5147915;27;20048;-74
2022/03/02 04:03:51;;;;;;;20.10;14.82;;;8.20;99.90;;;;;;5147955;27;20031;-75
2022/03/02 04:06:16;;;;;;;19.35;15.25;;;8.20;99.90;;;;;;5141274;27;20023;-73
2022/03/02 04:08:43;;;;;;;19.70;14.40;;;8.20;99.90;;;;;;5126372;28;20025;-75
2022/03/02 04:11:09;;;;;;;19.63;14.15;;;8.20;99.90;;;;;;5127197;28;20051;-75
2022/03/02 04:13:35;;;;;;;19.63;14.32;;;8.20;99.90;;;;;;5126104;28;20329;-74
2022/03/02 04:16:01;;;;;;;18.40;14.02;;;8.20;99.90;;;;;;5127248;28;20180;-75
2022/03/02 04:18:26;;;;;;;19.05;14.70;;;8.20;99.90;;;;;;5126113;28;20031;-74
2022/03/02 04:20:52;;;;;;;21.85;15.52;;;8.20;99.90;;;;;;5126950;28;20023;-74
2022/03/02 04:23:19;;;;;;;20.90;15.10;;;8.20;99.90;;;;;;5126947;27;20015;-75
2022/03/02 04:25:44;;;;;;;20.00;14.77;;;8.30;99.90;;;;;;5126051;28;20027;-74
2022/03/02 04:28:10;;;;;;;21.65;15.00;;;8.20;99.90;;;;;;5125403;28;20084;-75
2022/03/02 04:30:36;;;;;;;21.73;15.05;;;8.20;99.90;;;;;;5126963;28;20023;-75
2022/03/02 04:33:02;;;;;;;20.77;15.18;;;8.20;99.90;;;;;;5125599;28;20031;-74
2022/03/02 04:35:28;;;;;;;20.13;14.73;;;8.30;99.90;;;;;;5125473;28;20020;-74
2022/03/02 04:37:54;;;;;;;20.75;15.25;;;8.30;99.90;;;;;;5126971;28;20333;-75
2022/03/02 04:40:20;;;;;;;21.23;14.93;;;8.30;99.90;;;;;;5125503;28;20039;-74
2022/03/02 04:42:45;;;;;;;18.60;14.32;;;8.30;99.90;;;;;;5126250;28;20073;-73
2022/03/02 04:45:12;;;;;;;20.88;15.00;;;8.30;99.90;;;;;;5126638;28;20054;-74
2022/03/02 04:47:37;;;;;;;19.80;14.65;;;8.30;99.90;;;;;;5123753;28;20027;-74
2022/03/02 04:50:06;;;;;;;21.42;15.70;;;8.40;99.90;;;;;;5126427;27;20024;-74
2022/03/02 04:52:32;;;;;;;20.33;14.70;;;8.40;99.90;;;;;;5108571;28;20035;-75
2022/03/02 04:55:13;;;;;;;25.25;16.98;;;8.40;99.90;;;;;;5126519;28;20251;-74
2022/03/02 04:57:49;;;;;;;24.67;15.65;;;8.40;99.90;;;;;;5126195;28;20015;-74
2022/03/02 05:00:21;;;;;;;24.55;15.82;;;8.50;99.90;;;;;;5108676;28;20023;-74
2022/03/02 05:02:47;;;;;;;23.23;16.13;;;8.50;99.90;;;;;;5107807;28;20038;-74
2022/03/02 05:05:15;;;;;;;24.83;16.58;;;8.50;99.90;;;;;;5124929;28;20342;-75
2022/03/02 05:07:42;;;;;;;25.20;17.63;;;8.50;99.90;;;;;;5124804;28;20291;-75
2022/03/02 05:10:09;;;;;;;24.35;17.02;;;8.40;99.90;;;;;;5125334;28;20035;-75
2022/03/02 05:12:35;;;;;;;24.38;17.40;;;8.40;99.90;;;;;;5107752;28;20073;-75
2022/03/02 05:15:02;;;;;;;27.08;17.83;;;8.40;99.90;;;;;;5125879;28;20011;-74
2022/03/02 05:17:28;;;;;;;26.67;17.65;;;8.40;99.90;;;;;;5124355;28;20210;-74
2022/03/02 05:19:54;;;;;;;25.92;17.08;;;8.50;99.90;;;;;;5125445;28;20061;-73
2022/03/02 05:22:19;;;;;;;28.35;18.73;;;8.50;99.90;;;;;;5124446;28;20042;-75
2022/03/02 05:24:45;;;;;;;26.30;18.15;;;8.50;99.90;;;;;;5107765;28;20024;-74
2022/03/02 05:27:11;;;;;;;27.45;18.13;;;8.50;99.90;;;;;;5125567;28;20307;-75
2022/03/02 05:29:37;;;;;;;26.90;18.65;;;8.50;99.90;;;;;;5124785;28;20041;-74
2022/03/02 05:32:03;;;;;;;30.63;19.70;;;8.60;99.90;;;;;;5125717;28;20030;-75
2022/03/02 05:34:29;;;;;;;30.20;19.77;;;8.60;99.90;;;;;;5107477;28;20077;-73
2022/03/02 05:36:55;;;;;;;28.50;19.05;;;8.60;99.90;;;;;;5124502;28;20035;-75
2022/03/02 05:39:20;;;;;;;30.45;19.85;;;8.70;99.90;;;;;;5125650;28;20557;-74
2022/03/02 05:41:46;;;;;;;25.42;17.58;;;8.70;99.90;;;;;;5124411;28;20027;-75
2022/03/02 05:44:12;;;;;;;28.13;19.48;;;8.90;99.90;;;;;;5107107;28;20351;-75
2022/03/02 05:46:38;;;;;;;31.83;19.90;;;8.90;99.90;;;;;;5143661;27;20222;-75
2022/03/02 05:49:05;;;;;;;33.78;20.95;;;8.90;99.90;;;;;;5144645;27;20314;-74
2022/03/02 05:51:32;;;;;;;31.98;21.05;;;8.90;99.90;;;;;;5144826;27;20205;-75
2022/03/02 05:53:58;;;;;;;33.80;21.45;;;8.90;99.90;;;;;;5145756;27;20245;-75
2022/03/02 05:56:25;;;;;;;36.28;21.55;;;8.80;99.90;;;;;;5145644;27;20019;-74
2022/03/02 05:58:51;;;;;;;36.60;22.10;;;8.80;99.90;;;;;;5145903;27;20011;-74
2022/03/02 06:01:18;;;;;;;36.45;22.42;;;8.80;99.90;;;;;;5127201;27;20023;-75
2022/03/02 06:03:44;;;;;;;37.72;22.67;;;8.80;99.90;;;;;;5145715;27;20099;-74
2022/03/02 06:06:10;;;;;;;36.92;23.35;;;8.80;99.90;;;;;;5139921;27;20031;-72
2022/03/02 06:08:36;;;;;;;42.45;24.23;;;8.80;99.90;;;;;;5125074;28;20096;-75
2022/03/02 06:11:02;;;;;;;42.72;24.00;;;8.80;99.90;;;;;;5124982;28;20027;-74
2022/03/02 06:13:28;;;;;;;44.30;24.65;;;8.80;99.90;;;;;;5106711;28;20019;-75
2022/03/02 06:15:54;;;;;;;40.97;24.08;;;8.90;99.90;;;;;;5124822;28;20088;-75
2022/03/02 06:18:20;;;;;;;45.50;24.77;;;8.80;99.90;;;;;;5124809;28;20260;-74
2022/03/02 06:20:50;;;;;;;45.00;24.88;;;8.80;99.90;;;;;;5124339;28;20058;-75
2022/03/02 06:23:16;;;;;;;45.63;25.77;;;8.80;99.90;;;;;;5122376;28;20084;-77
2022/03/02 06:25:42;;;;;;;49.03;27.08;;;8.80;99.90;;;;;;5124615;28;20028;-75
2022/03/02 06:28:07;;;;;;;48.35;27.00;;;8.80;99.90;;;;;;5124255;28;20072;-76
2022/03/02 06:30:33;;;;;;;52.63;27.70;;;8.90;99.90;;;;;;5123055;28;20086;-75
2022/03/02 06:32:59;;;;;;;55.33;28.98;;;8.80;99.90;;;;;;5124260;28;20257;-75
2022/03/02 06:35:25;;;;;;;61.15;30.27;;;8.80;99.90;;;;;;5124221;28;20019;-74
2022/03/02 06:37:51;;;;;;;61.90;32.15;;;8.80;99.90;;;;;;5123297;28;20064;-74
2022/03/02 06:40:17;;;;;;;61.42;31.17;;;8.70;99.90;;;;;;5106059;28;20210;-75
2022/03/02 06:43:04;;;;;;;65.28;32.97;;;8.70;99.90;;;;;;5124053;28;20335;-74
2022/03/02 06:46:09;;;;;;;62.08;31.08;;;8.80;99.90;;;;;;5097038;28;20034;-75
2022/03/02 06:48:58;;;;;;;73.38;34.85;;;8.80;99.90;;;;;;5096212;28;20020;-74
2022/03/02 06:51:24;;;;;;;73.32;32.80;;;8.80;99.90;;;;;;5124075;28;20023;-74
2022/03/02 06:53:51;;;;;;;71.18;34.78;;;8.80;99.90;;;;;;5123729;28;20023;-73
2022/03/02 06:56:19;;;;;;;72.72;35.15;;;8.70;99.90;;;;;;5122443;28;20057;-74
2022/03/02 06:58:55;;;;;;;75.43;35.80;;;8.80;99.90;;;;;;5122405;28;20337;-76
2022/03/02 07:01:30;;;;;;;77.10;35.90;;;8.80;99.90;;;;;;5123944;28;20042;-76
2022/03/02 07:03:58;;;;;;;87.07;39.75;;;8.70;99.90;;;;;;5105758;28;20219;-75
2022/03/02 07:06:25;;;;;;;83.65;39.35;;;8.70;99.90;;;;;;5110040;28;20076;-75
2022/03/02 07:08:52;;;;;;;89.07;38.95;;;8.70;99.90;;;;;;5122316;28;20064;-75
2022/03/02 07:11:19;;;;;;;96.78;40.85;;;8.70;99.90;;;;;;5122583;28;20027;-75
2022/03/02 07:13:47;;;;;;;88.90;40.55;;;8.70;99.90;;;;;;5122491;28;20135;-77
2022/03/02 07:16:14;;;;;;;91.82;40.53;;;8.70;99.90;;;;;;5138373;27;20041;-77
2022/03/02 07:18:41;;;;;;;92.95;41.35;;;8.70;99.90;;;;;;5123582;28;20215;-75
2022/03/02 07:21:12;;;;;;;92.82;39.40;;;8.70;99.90;;;;;;5123588;28;20110;-74
2022/03/02 07:23:46;;;;;;;99.30;42.47;;;8.70;99.90;;;;;;5123719;28;20023;-76
2022/03/02 07:26:12;;;;;;;102.57;43.25;;;8.70;99.90;;;;;;5121840;28;20038;-74
2022/03/02 07:28:39;;;;;;;104.07;43.60;;;8.70;99.90;;;;;;5139164;27;20026;-75
2022/03/02 07:31:09;;;;;;;105.53;44.55;;;8.80;99.90;;;;;;5122261;28;20026;-74
2022/03/02 07:33:42;;;;;;;104.95;44.42;;;8.80;99.90;;;;;;5138997;27;20027;-75
2022/03/02 07:36:09;;;;;;;108.82;45.60;;;8.80;99.90;;;;;;5122102;28;20069;-78
2022/03/02 07:38:35;;;;;;;111.53;46.22;;;8.80;99.90;;;;;;5139461;27;20326;-76
2022/03/02 07:41:07;;;;;;;107.35;45.28;;;8.90;99.90;;;;;;5122023;28;20096;-76
2022/03/02 07:43:36;;;;;;;109.68;44.05;;;8.90;99.90;;;;;;5123015;28;20066;-77
2022/03/02 07:46:05;;;;;;;102.47;43.08;;;9.00;99.90;;;;;;5131486;27;20038;-76
2022/03/02 07:48:31;;;;;;;107.30;43.58;;;9.10;99.90;;;;;;5104944;28;20020;-74
2022/03/02 07:50:58;;;;;;;106.10;43.35;;;9.00;99.90;;;;;;5103152;28;20051;-76
2022/03/02 07:53:28;;;;;;;110.32;45.47;;;9.00;99.90;;;;;;5123409;28;20027;-75
2022/03/02 07:55:56;;;;;;;114.60;44.78;;;9.10;99.90;;;;;;5123101;28;20076;-77
2022/03/02 07:58:24;;;;;;;110.45;45.55;;;9.10;99.90;;;;;;5122994;28;20028;-75
2022/03/02 08:00:53;;;;;;;114.22;45.28;;;9.10;99.90;;;;;;5124597;28;20039;-77
2022/03/02 08:03:19;;;;;;;108.30;45.13;;;9.20;99.90;;;;;;5130167;28;20039;-77
2022/03/02 08:05:45;;;;;;;110.70;45.90;;;9.30;99.90;;;;;;5118476;28;20011;-78
2022/03/02 08:08:11;;;;;;;119.45;47.78;;;9.30;99.90;;;;;;5116460;28;20205;-80
2022/03/02 08:10:37;;;;;;;112.13;46.00;;;9.30;99.90;;;;;;5100136;28;20086;-76
2022/03/02 08:13:02;;;;;;;120.97;49.20;;;9.30;99.90;;;;;;5112849;28;20023;-79
2022/03/02 08:15:29;;;;;;;128.65;49.53;;;9.30;99.90;;;;;;5127274;28;20020;-81
2022/03/02 08:17:55;;;;;;;119.75;48.75;;;9.30;99.90;;;;;;5121646;28;20051;-77
2022/03/02 08:20:21;;;;;;;121.72;48.95;;;9.30;99.90;;;;;;5131572;28;20089;-75
2022/03/02 08:22:51;;;;;;;122.90;50.78;;;9.30;99.90;;;;;;5135494;28;20062;-81
2022/03/02 08:25:22;;;;;;;118.95;48.45;;;9.30;99.90;;;;;;5123049;28;20247;-82
2022/03/02 08:27:50;;;;;;;115.60;47.28;;;9.40;99.90;;;;;;5123541;28;20019;-78
2022/03/02 08:30:16;;;;;;;109.45;47.22;;;9.40;99.90;;;;;;5120917;28;20031;-79
2022/03/02 08:32:44;;;;;;;114.30;47.58;;;9.40;99.90;;;;;;5140142;28;20021;-80
2022/03/02 08:35:11;;;;;;;111.18;47.17;;;9.50;99.90;;;;;;5138352;28;20019;-81
2022/03/02 08:37:37;;;;;;;110.47;45.63;;;9.40;99.90;;;;;;5107855;28;20023;-81
2022/03/02 08:40:04;;;;;;;116.22;48.95;;;9.40;99.90;;;;;;5123125;28;20054;-78
2022/03/02 08:42:32;;;;;;;117.97;47.63;;;9.40;99.90;;;;;;5107457;28;20051;-85
2022/03/02 08:44:58;;;;;;;101.60;45.42;;;9.40;99.90;;;;;;5105007;28;20032;-81
2022/03/02 08:47:24;;;;;;;119.38;46.33;;;9.40;99.90;;;;;;5127091;27;20051;-80
2022/03/02 08:49:51;;;;;;;112.03;46.00;;;9.40;99.90;;;;;;5125026;27;20060;-82
2022/03/02 08:52:20;;;;;;;111.55;47.83;;;9.40;99.90;;;;;;5108637;27;20057;-80
2022/03/02 08:54:48;;;;;;;108.53;45.70;;;9.50;99.90;;;;;;5129673;27;20023;-80
2022/03/02 08:57:15;;;;;;;112.50;48.72;;;9.40;99.90;;;;;;5124766;27;20055;-81
2022/03/02 08:59:41;;;;;;;110.28;47.78;;;9.40;99.90;;;;;;5128198;27;20049;-78
2022/03/02 09:02:08;;;;;;;107.28;46.08;;;9.50;99.90;;;;;;5130089;27;20050;-82
2022/03/02 09:04:35;;;;;;;116.57;48.80;;;9.40;99.90;;;;;;5136347;27;20023;-81
2022/03/02 09:07:04;;;;;;;105.35;45.92;;;9.50;99.90;;;;;;5107845;28;20023;-83
2022/03/02 09:09:30;;;;;;;99.55;44.88;;;9.50;99.90;;;;;;5126486;27;20207;-81
2022/03/02 09:11:56;;;;;;;101.10;43.50;;;9.50;99.90;;;;;;5124932;28;20094;-81
2022/03/02 09:14:23;;;;;;;96.40;41.63;;;9.50;99.90;;;;;;5126153;27;20034;-82
2022/03/02 09:16:49;;;;;;;89.13;39.90;;;9.50;99.90;;;;;;5125014;28;20019;-83
2022/03/02 09:19:16;;;;;;;92.90;41.10;;;9.50;99.90;;;;;;5141051;27;20218;-82
2022/03/02 09:21:43;;;;;;;90.20;40.35;;;9.50;99.90;;;;;;5128296;27;20019;-81
2022/03/02 09:24:10;;;;;;;87.38;38.67;;;9.50;99.90;;;;;;5124187;28;20035;-80
2022/03/02 09:26:39;;;;;;;93.47;40.83;;;9.50;99.90;;;;;;5123454;28;20093;-77
2022/03/02 09:29:06;;;;;;;84.97;38.90;;;9.50;99.90;;;;;;5107385;28;20054;-79
2022/03/02 09:31:34;;;;;;;83.68;37.67;;;9.50;99.90;;;;;;5140715;27;20020;-78
2022/03/02 09:34:04;;;;;;;81.25;37.15;;;9.50;99.90;;;;;;5139870;27;20020;-80
2022/03/02 09:36:34;;;;;;;84.80;38.45;;;9.60;99.90;;;;;;5123705;28;20015;-80
2022/03/02 09:39:02;;;;;;;79.78;37.42;;;9.50;99.90;;;;;;5117142;28;20016;-79
2022/03/02 09:41:36;;;;;;;87.50;37.72;;;9.50;99.90;;;;;;5107056;28;20046;-79
2022/03/02 09:44:06;;;;;;;85.72;36.08;;;9.50;99.90;;;;;;5128876;27;20031;-80
2022/03/02 09:46:36;;;;;;;86.70;37.40;;;9.50;99.90;;;;;;5126402;27;20073;-78
2022/03/02 09:49:06;;;;;;;82.93;37.25;;;9.50;99.90;;;;;;5124647;27;20039;-77
2022/03/02 09:51:33;;;;;;;92.85;37.03;;;9.40;99.90;;;;;;5122727;28;20028;-77
2022/03/02 09:54:02;;;;;;;82.80;37.47;;;9.30;99.90;;;;;;5109718;27;20015;-77
2022/03/02 09:56:31;;;;;;;87.00;37.63;;;9.30;99.90;;;;;;5141949;27;20023;-79
2022/03/02 09:59:00;;;;;;;86.65;36.45;;;9.40;99.90;;;;;;5123812;27;20035;-76
2022/03/02 10:01:28;;;;;;;94.15;39.45;;;9.40;99.90;;;;;;5127193;27;20287;-78
2022/03/02 10:03:54;;;;;;;87.25;40.30;;;9.30;99.90;;;;;;5136337;27;20028;-78
2022/03/02 10:06:22;;;;;;;86.07;37.33;;;9.30;99.90;;;;;;5122926;28;20102;-76
2022/03/02 10:08:51;;;;;;;95.53;39.05;;;9.30;99.90;;;;;;5136232;27;20045;-74
2022/03/02 10:11:25;;;;;;;90.43;38.67;;;9.30;99.90;;;;;;5142858;27;20019;-75
2022/03/02 10:13:55;;;;;;;89.60;38.78;;;9.30;99.90;;;;;;5122549;27;20369;-76
2022/03/02 10:16:25;;;;;;;88.72;38.40;;;9.30;99.90;;;;;;5122911;28;20102;-76
2022/03/02 10:18:57;;;;;;;89.45;38.55;;;9.30;99.90;;;;;;5112651;28;20116;-72
2022/03/02 10:21:29;;;;;;;89.85;39.15;;;9.40;99.90;;;;;;5127615;27;20341;-75
2022/03/02 10:24:02;;;;;;;90.60;38.97;;;9.40;99.90;;;;;;5107254;27;20042;-76
2022/03/02 10:26:31;;;;;;;80.55;37.83;;;9.50;99.90;;;;;;5120833;27;20031;-76
2022/03/02 10:29:11;;;;;;;84.03;36.92;;;9.60;99.90;;;;;;5117688;28;20024;-74
2022/03/02 10:31:48;;;;;;;73.30;35.67;;;9.50;99.90;;;;;;5124880;27;20095;-72
2022/03/02 10:34:32;;;;;;;81.32;36.05;;;9.50;99.90;;;;;;5091654;27;20322;-76
2022/03/02 10:37:29;;;;;;;79.47;36.60;;;9.40;99.90;;;;;;5122339;28;20024;-73
2022/03/02 10:40:05;;;;;;;80.32;37.70;;;9.40;99.90;;;;;;5122732;27;20294;-72
2022/03/02 10:42:35;;;;;;;78.95;37.22;;;9.40;99.90;;;;;;5122399;28;20043;-76
2022/03/02 10:45:12;;;;;;;85.63;37.25;;;9.50;99.90;;;;;;5137422;27;20024;-73
2022/03/02 10:48:01;;;;;;;81.90;37.92;;;9.60;99.90;;;;;;5096711;28;20055;-74
2022/03/02 10:50:31;;;;;;;74.88;36.05;;;9.60;99.90;;;;;;5048016;28;20052;-75
2022/03/02 10:52:58;;;;;;;69.20;34.72;;;9.70;99.90;;;;;;5075877;28;20104;-72
2022/03/02 10:55:25;;;;;;;70.03;33.97;;;9.70;99.90;;;;;;5079525;28;20084;-77
2022/03/02 10:57:52;;;;;;;66.82;34.28;;;9.80;99.90;;;;;;5081039;28;20036;-77
2022/03/02 11:00:20;;;;;;;63.53;32.60;;;9.80;99.90;;;;;;5050634;28;20072;-76
2022/03/02 11:02:48;;;;;;;61.78;31.70;;;9.70;99.90;;;;;;5063492;28;20028;-76
2022/03/02 11:05:18;;;;;;;63.30;32.58;;;9.60;99.90;;;;;;5081146;28;20033;-77
2022/03/02 11:07:45;;;;;;;64.68;31.88;;;9.60;99.90;;;;;;5073120;28;20025;-75
2022/03/02 11:10:16;;;;;;;59.38;31.17;;;9.60;99.90;;;;;;5095439;28;20090;-76
2022/03/02 11:12:44;;;;;;;55.63;29.75;;;9.70;99.90;;;;;;5078110;28;20012;-73
2022/03/02 11:15:11;;;;;;;58.13;29.63;;;9.80;99.90;;;;;;5047534;28;20055;-76
2022/03/02 11:18:04;;;;;;;54.65;28.20;;;9.80;99.90;;;;;;5079984;28;20095;-76
2022/03/02 11:20:30;;;;;;;54.95;28.83;;;9.80;99.90;;;;;;5081293;28;20032;-77
2022/03/02 11:22:59;;;;;;;56.33;29.27;;;9.80;99.90;;;;;;5064456;28;20040;-77
2022/03/02 11:25:47;;;;;;;50.40;28.48;;;9.80;99.90;;;;;;5063816;28;20096;-75
2022/03/02 11:28:19;;;;;;;50.05;27.05;;;10.00;99.90;;;;;;5080876;28;20029;-74
2022/03/02 11:30:53;;;;;;;43.67;24.75;;;10.10;99.90;;;;;;5079053;28;20056;-75
2022/03/02 11:33:23;;;;;;;47.10;25.17;;;10.20;99.90;;;;;;5028693;28;20060;-76
2022/03/02 11:35:50;;;;;;;44.00;26.05;;;10.10;99.90;;;;;;5048852;28;20025;-74
2022/03/02 11:38:20;;;;;;;42.03;23.92;;;10.10;99.90;;;;;;5062754;28;20028;-74
2022/03/02 11:40:48;;;;;;;38.05;22.33;;;10.00;99.90;;;;;;5073992;28;20023;-75
2022/03/02 11:43:26;;;;;;;42.90;22.83;;;10.00;99.90;;;;;;5080878;28;20320;-75
2022/03/02 11:45:57;;;;;;;41.40;22.95;;;10.00;99.90;;;;;;5057043;28;20025;-77
2022/03/02 11:48:24;;;;;;;;;;;9.90;99.90;;;;;;5085424;28;20070;-76
2022/03/02 11:51:13;;;;;;;41.08;21.27;;;10.00;99.90;;;;;;5071006;28;19940;-76
2022/03/02 11:53:46;;;;;;;36.35;21.67;;;10.10;99.90;;;;;;5078891;28;20303;-76
2022/03/02 11:56:17;;;;;;;33.75;20.40;;;10.00;99.90;;;;;;5075196;28;20099;-78
2022/03/02 11:59:07;;;;;;;35.03;19.48;;;10.10;99.90;;;;;;5072383;28;20074;-74
2022/03/02 12:01:44;;;;;;;33.88;19.77;;;10.20;99.90;;;;;;5084533;28;20021;-73
2022/03/02 12:04:11;;;;;;;39.03;20.73;;;10.20;99.90;;;;;;5073182;28;20108;-76
2022/03/02 12:06:48;;;;;;;32.85;20.02;;;10.20;99.90;;;;;;5078325;28;20064;-74
2022/03/02 12:09:35;;;;;;;31.73;19.10;;;10.10;99.90;;;;;;5063986;28;20040;-77
2022/03/02 12:12:21;;;;;;;33.92;20.23;;;10.00;99.90;;;;;;5047763;28;20069;-78
2022/03/02 12:14:53;;;;;;;33.20;20.38;;;10.10;99.90;;;;;;5051627;28;20338;-78
2022/03/02 12:17:25;;;;;;;40.88;21.25;;;10.00;99.90;;;;;;5081850;28;20034;-77
2022/03/02 12:19:54;;;;;;;35.42;21.23;;;10.00;99.90;;;;;;5069608;28;20055;-77
2022/03/02 12:22:20;;;;;;;31.77;19.60;;;10.10;99.90;;;;;;5066767;28;20037;-75
2022/03/02 12:24:48;;;;;;;30.17;18.95;;;10.20;99.90;;;;;;5084978;28;20197;-76
2022/03/02 12:27:15;;;;;;;45.33;18.85;;;10.30;99.90;;;;;;5085700;28;20120;-75
2022/03/02 12:29:42;;;;;;;23.40;15.88;;;10.30;99.90;;;;;;5049407;28;20075;-77
2022/03/02 12:32:15;;;;;;;26.60;16.02;;;10.40;99.90;;;;;;5048684;28;20415;-75
2022/03/02 12:34:44;;;;;;;26.85;15.13;;;10.50;99.90;;;;;;5051122;28;20330;-77
2022/03/02 12:37:12;;;;;;;28.38;16.90;;;10.50;99.90;;;;;;5073705;28;20051;-78
2022/03/02 12:39:39;;;;;;;27.48;15.90;;;10.50;99.90;;;;;;5098768;28;20032;-76
2022/03/02 12:42:08;;;;;;;28.35;16.88;;;10.30;99.90;;;;;;5073263;28;20121;-78